EDW140K LSZH-HESH
Flight info
| Callsign | EDW140K |
|---|---|
| Flight time | 4h 0m |
| Altitude | 35000 |
| Route | DEGES Z2 XEBIX L607 ELMEM N606 GIRIS DCT NIVAS DCT PEVAL DCT IPKIS DCT AIOSA DCT LATAN DCT OSDES DCT ETILI UM872 PLH DCT SALUN N705 BOPIX N710 TAKRI M720 FYM M872 SEMRU W727 DEDEV DEDEV1G |
| Aircraft | A320/M-SDE3FGHIRWY/LB1 |
Departure
| Time | 2026-05-08 10:40 |
|---|---|
| Airport | Zürich Airport (LSZH) |
Arrival
| Time | 2026-05-08 14:40 |
|---|---|
| Airport | Sharm El Sheikh International Airport (HESH) |
| Time | Latitude | Longitude | Altitude | Speed | Heading |
|---|---|---|---|---|---|
| 2026-05-08 09:47 | 47.46070 | 8.55174 | 1402 ft | 0 kts | 65° |
| 2026-05-08 10:29 | 47.46069 | 8.55171 | 1394 ft | 3 kts | 65° |
| 2026-05-08 10:29 | 47.46059 | 8.55136 | 1401 ft | 4 kts | 72° |
| 2026-05-08 10:29 | 47.46053 | 8.55098 | 1396 ft | 4 kts | 88° |
| 2026-05-08 10:30 | 47.46057 | 8.55063 | 1398 ft | 4 kts | 136° |
| 2026-05-08 10:30 | 47.46066 | 8.55053 | 1401 ft | 1 kts | 154° |
| 2026-05-08 10:30 | 47.46067 | 8.55052 | 1401 ft | 0 kts | 154° |
| 2026-05-08 10:34 | 47.46067 | 8.55053 | 1401 ft | 0 kts | 154° |
| 2026-05-08 10:35 | 47.46059 | 8.55058 | 1395 ft | 3 kts | 153° |
| 2026-05-08 10:35 | 47.46019 | 8.55088 | 1402 ft | 8 kts | 152° |
| 2026-05-08 10:35 | 47.45989 | 8.55168 | 1400 ft | 10 kts | 98° |
| 2026-05-08 10:35 | 47.45981 | 8.55279 | 1396 ft | 10 kts | 96° |
| 2026-05-08 10:36 | 47.45973 | 8.55391 | 1398 ft | 12 kts | 96° |
| 2026-05-08 10:36 | 47.45962 | 8.55534 | 1407 ft | 15 kts | 96° |
| 2026-05-08 10:36 | 47.45953 | 8.55673 | 1402 ft | 13 kts | 96° |
| 2026-05-08 10:36 | 47.45942 | 8.55820 | 1404 ft | 16 kts | 96° |
| 2026-05-08 10:37 | 47.45930 | 8.55985 | 1412 ft | 14 kts | 96° |
| 2026-05-08 10:37 | 47.45920 | 8.56141 | 1412 ft | 17 kts | 95° |
| 2026-05-08 10:37 | 47.45910 | 8.56279 | 1413 ft | 14 kts | 96° |
| 2026-05-08 10:37 | 47.45889 | 8.56425 | 1419 ft | 15 kts | 124° |
| 2026-05-08 10:38 | 47.45822 | 8.56517 | 1422 ft | 13 kts | 138° |
| 2026-05-08 10:38 | 47.45793 | 8.56655 | 1424 ft | 16 kts | 96° |
| 2026-05-08 10:38 | 47.45781 | 8.56825 | 1421 ft | 14 kts | 96° |
| 2026-05-08 10:38 | 47.45769 | 8.56972 | 1424 ft | 14 kts | 103° |
| 2026-05-08 10:39 | 47.45685 | 8.57019 | 1425 ft | 16 kts | 212° |
| 2026-05-08 10:39 | 47.45671 | 8.56883 | 1422 ft | 10 kts | 276° |
| 2026-05-08 10:39 | 47.45676 | 8.56810 | 1421 ft | 14 kts | 276° |
| 2026-05-08 10:39 | 47.45713 | 8.56318 | 1415 ft | 86 kts | 276° |
| 2026-05-08 10:40 | 47.45798 | 8.55110 | 1394 ft | 148 kts | 276° |
| 2026-05-08 10:40 | 47.45924 | 8.53378 | 1612 ft | 178 kts | 277° |
| 2026-05-08 10:40 | 47.46054 | 8.51578 | 2385 ft | 179 kts | 277° |
| 2026-05-08 10:40 | 47.46180 | 8.49685 | 2987 ft | 190 kts | 276° |
| 2026-05-08 10:41 | 47.46175 | 8.47650 | 3157 ft | 213 kts | 253° |
| 2026-05-08 10:41 | 47.45441 | 8.45667 | 3447 ft | 229 kts | 238° |
| 2026-05-08 10:41 | 47.44599 | 8.43635 | 4072 ft | 229 kts | 240° |
| 2026-05-08 10:41 | 47.43822 | 8.41612 | 4929 ft | 225 kts | 241° |
| 2026-05-08 10:42 | 47.43082 | 8.39586 | 5684 ft | 223 kts | 242° |
| 2026-05-08 10:42 | 47.42146 | 8.37768 | 6389 ft | 225 kts | 216° |
| 2026-05-08 10:42 | 47.40699 | 8.36933 | 7023 ft | 228 kts | 184° |
| 2026-05-08 10:42 | 47.39177 | 8.37367 | 7625 ft | 233 kts | 152° |
| 2026-05-08 10:43 | 47.38017 | 8.39033 | 8214 ft | 240 kts | 117° |
| 2026-05-08 10:43 | 47.37700 | 8.41444 | 8831 ft | 246 kts | 82° |
| 2026-05-08 10:43 | 47.38396 | 8.43737 | 9452 ft | 251 kts | 48° |
| 2026-05-08 10:43 | 47.39623 | 8.45593 | 10076 ft | 254 kts | 45° |
| 2026-05-08 10:44 | 47.40886 | 8.47434 | 10666 ft | 257 kts | 44° |
| 2026-05-08 10:44 | 47.42162 | 8.49291 | 11252 ft | 259 kts | 44° |
| 2026-05-08 10:44 | 47.43453 | 8.51169 | 11857 ft | 261 kts | 44° |
| 2026-05-08 10:44 | 47.44717 | 8.53052 | 12463 ft | 263 kts | 48° |
| 2026-05-08 10:45 | 47.45835 | 8.55219 | 12928 ft | 273 kts | 63° |
| 2026-05-08 10:45 | 47.46394 | 8.57954 | 13081 ft | 291 kts | 87° |
| 2026-05-08 10:45 | 47.46478 | 8.61057 | 13222 ft | 312 kts | 90° |
| 2026-05-08 10:45 | 47.46527 | 8.64371 | 13364 ft | 333 kts | 90° |
| 2026-05-08 10:46 | 47.46564 | 8.67896 | 13507 ft | 352 kts | 90° |
| 2026-05-08 10:46 | 47.46596 | 8.71599 | 13651 ft | 369 kts | 90° |
| 2026-05-08 10:46 | 47.46631 | 8.75481 | 13794 ft | 386 kts | 90° |
| 2026-05-08 10:46 | 47.46672 | 8.79511 | 14063 ft | 396 kts | 90° |
| 2026-05-08 10:47 | 47.46490 | 8.83604 | 14486 ft | 400 kts | 100° |
| 2026-05-08 10:47 | 47.45938 | 8.87637 | 14968 ft | 402 kts | 103° |
| 2026-05-08 10:47 | 47.45347 | 8.91690 | 15458 ft | 405 kts | 103° |
| 2026-05-08 10:47 | 47.44757 | 8.95772 | 15940 ft | 407 kts | 103° |
| 2026-05-08 10:48 | 47.44169 | 8.99882 | 16427 ft | 410 kts | 103° |
| 2026-05-08 10:48 | 47.43579 | 9.04020 | 16900 ft | 413 kts | 103° |
| 2026-05-08 10:48 | 47.42992 | 9.08124 | 17342 ft | 416 kts | 103° |
| 2026-05-08 10:48 | 47.42388 | 9.12311 | 17786 ft | 418 kts | 103° |
| 2026-05-08 10:49 | 47.41830 | 9.16550 | 18214 ft | 422 kts | 99° |
| 2026-05-08 10:49 | 47.41679 | 9.20898 | 18600 ft | 427 kts | 89° |
| 2026-05-08 10:49 | 47.42025 | 9.25268 | 18964 ft | 431 kts | 79° |
| 2026-05-08 10:49 | 47.42691 | 9.29602 | 19341 ft | 434 kts | 78° |
| 2026-05-08 10:50 | 47.43359 | 9.33957 | 19717 ft | 437 kts | 78° |
| 2026-05-08 10:50 | 47.44022 | 9.38338 | 20102 ft | 439 kts | 78° |
| 2026-05-08 10:50 | 47.44688 | 9.42769 | 20486 ft | 442 kts | 78° |
| 2026-05-08 10:50 | 47.45352 | 9.47209 | 20841 ft | 445 kts | 78° |
| 2026-05-08 10:51 | 47.46019 | 9.51685 | 21190 ft | 447 kts | 78° |
| 2026-05-08 10:51 | 47.46686 | 9.56194 | 21523 ft | 449 kts | 79° |
| 2026-05-08 10:51 | 47.47076 | 9.60774 | 21852 ft | 451 kts | 89° |
| 2026-05-08 10:51 | 47.47002 | 9.65405 | 22152 ft | 452 kts | 96° |
| 2026-05-08 10:52 | 47.46744 | 9.70054 | 22457 ft | 455 kts | 96° |
| 2026-05-08 10:52 | 47.46482 | 9.74723 | 22778 ft | 457 kts | 96° |
| 2026-05-08 10:52 | 47.46219 | 9.79419 | 23109 ft | 460 kts | 96° |
| 2026-05-08 10:52 | 47.45954 | 9.84135 | 23422 ft | 462 kts | 96° |
| 2026-05-08 10:53 | 47.45690 | 9.88877 | 23726 ft | 465 kts | 96° |
| 2026-05-08 10:53 | 47.45424 | 9.93643 | 23979 ft | 467 kts | 96° |
| 2026-05-08 10:53 | 47.45154 | 9.98446 | 24231 ft | 470 kts | 96° |
| 2026-05-08 10:53 | 47.44880 | 10.03264 | 24461 ft | 472 kts | 96° |
| 2026-05-08 10:54 | 47.44599 | 10.08108 | 24674 ft | 475 kts | 97° |
| 2026-05-08 10:54 | 47.44312 | 10.12981 | 24893 ft | 477 kts | 97° |
| 2026-05-08 10:54 | 47.44006 | 10.17872 | 25110 ft | 479 kts | 99° |
| 2026-05-08 10:54 | 47.43418 | 10.22717 | 25305 ft | 480 kts | 103° |
| 2026-05-08 10:55 | 47.42768 | 10.27545 | 25502 ft | 482 kts | 103° |
| 2026-05-08 10:55 | 47.42109 | 10.32416 | 25738 ft | 484 kts | 104° |
| 2026-05-08 10:55 | 47.41334 | 10.37244 | 25946 ft | 483 kts | 110° |
| 2026-05-08 10:55 | 47.40067 | 10.41825 | 26145 ft | 481 kts | 121° |
| 2026-05-08 10:56 | 47.38321 | 10.46004 | 26322 ft | 478 kts | 130° |
| 2026-05-08 10:56 | 47.36153 | 10.49695 | 26517 ft | 475 kts | 140° |
| 2026-05-08 10:56 | 47.33634 | 10.52806 | 26676 ft | 470 kts | 149° |
| 2026-05-08 10:56 | 47.30847 | 10.55266 | 26952 ft | 465 kts | 156° |
| 2026-05-08 10:57 | 47.28029 | 10.57490 | 27256 ft | 465 kts | 156° |
| 2026-05-08 10:57 | 47.25189 | 10.59731 | 27610 ft | 463 kts | 156° |
| 2026-05-08 10:57 | 47.19527 | 10.64204 | 28255 ft | 461 kts | 156° |
| 2026-05-08 10:58 | 47.16672 | 10.66341 | 28575 ft | 458 kts | 162° |
| 2026-05-08 10:58 | 47.13713 | 10.68018 | 28925 ft | 454 kts | 165° |
| 2026-05-08 10:58 | 47.10756 | 10.69637 | 29261 ft | 453 kts | 165° |
| 2026-05-08 10:58 | 47.07804 | 10.71250 | 29602 ft | 452 kts | 165° |
| 2026-05-08 10:59 | 47.04861 | 10.72861 | 30002 ft | 451 kts | 165° |
| 2026-05-08 10:59 | 47.01937 | 10.74462 | 30329 ft | 448 kts | 165° |
| 2026-05-08 10:59 | 46.99025 | 10.76079 | 30668 ft | 447 kts | 165° |
| 2026-05-08 10:59 | 46.96123 | 10.77715 | 30998 ft | 446 kts | 165° |
| 2026-05-08 11:00 | 46.93236 | 10.79358 | 31330 ft | 443 kts | 165° |
| 2026-05-08 11:00 | 46.90369 | 10.80992 | 31647 ft | 441 kts | 165° |
| 2026-05-08 11:00 | 46.87520 | 10.82610 | 31933 ft | 440 kts | 165° |
| 2026-05-08 11:00 | 46.84668 | 10.84221 | 32297 ft | 437 kts | 165° |
| 2026-05-08 11:01 | 46.81843 | 10.85812 | 32643 ft | 435 kts | 165° |
| 2026-05-08 11:01 | 46.79069 | 10.87628 | 32950 ft | 440 kts | 158° |
| 2026-05-08 11:01 | 46.76524 | 10.90069 | 33226 ft | 447 kts | 148° |
| 2026-05-08 11:01 | 46.74240 | 10.93189 | 33491 ft | 455 kts | 138° |
| 2026-05-08 11:02 | 46.72146 | 10.96661 | 33781 ft | 455 kts | 138° |
| 2026-05-08 11:02 | 46.67966 | 11.03565 | 34298 ft | 453 kts | 139° |
| 2026-05-08 11:02 | 46.65870 | 11.06991 | 34442 ft | 454 kts | 139° |
| 2026-05-08 11:03 | 46.63763 | 11.10417 | 34615 ft | 455 kts | 138° |
| 2026-05-08 11:03 | 46.61654 | 11.13842 | 34788 ft | 454 kts | 138° |
| 2026-05-08 11:03 | 46.59545 | 11.17270 | 34944 ft | 454 kts | 138° |
| 2026-05-08 11:03 | 46.57435 | 11.20697 | 35062 ft | 456 kts | 138° |
| 2026-05-08 11:04 | 46.55313 | 11.24141 | 35070 ft | 458 kts | 138° |
| 2026-05-08 11:04 | 46.51062 | 11.31025 | 35030 ft | 458 kts | 138° |
| 2026-05-08 11:05 | 46.46804 | 11.37912 | 35028 ft | 459 kts | 138° |
| 2026-05-08 11:05 | 46.42526 | 11.44817 | 35029 ft | 460 kts | 138° |
| 2026-05-08 11:06 | 46.38247 | 11.51703 | 35052 ft | 459 kts | 138° |
| 2026-05-08 11:06 | 46.33966 | 11.58571 | 35067 ft | 459 kts | 138° |
| 2026-05-08 11:07 | 46.29688 | 11.65423 | 35062 ft | 458 kts | 138° |
| 2026-05-08 11:07 | 46.25440 | 11.72210 | 35062 ft | 458 kts | 138° |
| 2026-05-08 11:08 | 46.21154 | 11.79028 | 35062 ft | 458 kts | 139° |
| 2026-05-08 11:08 | 46.16866 | 11.85837 | 35078 ft | 458 kts | 139° |
| 2026-05-08 11:09 | 46.12579 | 11.92638 | 35069 ft | 458 kts | 139° |
| 2026-05-08 11:09 | 46.08281 | 11.99423 | 35060 ft | 458 kts | 138° |
| 2026-05-08 11:10 | 46.03989 | 12.06185 | 35074 ft | 457 kts | 138° |
| 2026-05-08 11:10 | 45.99704 | 12.12928 | 35083 ft | 456 kts | 138° |
| 2026-05-08 11:11 | 45.95412 | 12.19659 | 35093 ft | 456 kts | 138° |
| 2026-05-08 11:11 | 45.91128 | 12.26362 | 35095 ft | 455 kts | 138° |
| 2026-05-08 11:12 | 45.86912 | 12.33088 | 35056 ft | 456 kts | 136° |
| 2026-05-08 11:12 | 45.82788 | 12.40020 | 35066 ft | 457 kts | 135° |
| 2026-05-08 11:13 | 45.78682 | 12.46965 | 35070 ft | 457 kts | 135° |
| 2026-05-08 11:13 | 45.74536 | 12.53871 | 35072 ft | 456 kts | 136° |
| 2026-05-08 11:14 | 45.70379 | 12.60735 | 35080 ft | 456 kts | 136° |
| 2026-05-08 11:14 | 45.66212 | 12.67583 | 35057 ft | 457 kts | 136° |
| 2026-05-08 11:15 | 45.62038 | 12.74439 | 35064 ft | 457 kts | 136° |
| 2026-05-08 11:15 | 45.57861 | 12.81301 | 35067 ft | 457 kts | 136° |
| 2026-05-08 11:16 | 45.53676 | 12.88150 | 35072 ft | 457 kts | 136° |
| 2026-05-08 11:16 | 45.49489 | 12.94983 | 35062 ft | 457 kts | 136° |
| 2026-05-08 11:17 | 45.45298 | 13.01805 | 35078 ft | 457 kts | 136° |
| 2026-05-08 11:17 | 45.41141 | 13.08562 | 35074 ft | 456 kts | 136° |
| 2026-05-08 11:18 | 45.36959 | 13.15340 | 35086 ft | 455 kts | 136° |
| 2026-05-08 11:18 | 45.33174 | 13.21450 | 35085 ft | 455 kts | 136° |
| 2026-05-08 11:19 | 45.28642 | 13.27594 | 35064 ft | 447 kts | 146° |
| 2026-05-08 11:19 | 45.23781 | 13.33123 | 35068 ft | 448 kts | 146° |
| 2026-05-08 11:20 | 45.18917 | 13.38653 | 35068 ft | 448 kts | 146° |
| 2026-05-08 11:20 | 45.14875 | 13.43240 | 35064 ft | 448 kts | 146° |
| 2026-05-08 11:21 | 45.10004 | 13.48745 | 35065 ft | 448 kts | 146° |
| 2026-05-08 11:21 | 45.05130 | 13.54240 | 35048 ft | 448 kts | 146° |
| 2026-05-08 11:22 | 45.00242 | 13.59739 | 35047 ft | 449 kts | 146° |
| 2026-05-08 11:22 | 44.95383 | 13.65210 | 35053 ft | 449 kts | 146° |
| 2026-05-08 11:23 | 44.90486 | 13.70711 | 35052 ft | 450 kts | 146° |
| 2026-05-08 11:23 | 44.85587 | 13.76192 | 35060 ft | 450 kts | 146° |
| 2026-05-08 11:24 | 44.80688 | 13.81660 | 35060 ft | 449 kts | 146° |
| 2026-05-08 11:24 | 44.75790 | 13.87115 | 35075 ft | 448 kts | 146° |
| 2026-05-08 11:25 | 44.70897 | 13.92547 | 35071 ft | 448 kts | 146° |
| 2026-05-08 11:25 | 44.66042 | 13.97935 | 35071 ft | 447 kts | 146° |
| 2026-05-08 11:26 | 44.61163 | 14.03332 | 35067 ft | 447 kts | 146° |
| 2026-05-08 11:26 | 44.56277 | 14.08726 | 35058 ft | 446 kts | 146° |
| 2026-05-08 11:27 | 44.51389 | 14.14110 | 35061 ft | 446 kts | 146° |
| 2026-05-08 11:27 | 44.46502 | 14.19480 | 35061 ft | 446 kts | 146° |
| 2026-05-08 11:28 | 44.41613 | 14.24841 | 35062 ft | 446 kts | 146° |
| 2026-05-08 11:28 | 44.36755 | 14.30152 | 35066 ft | 446 kts | 146° |
| 2026-05-08 11:29 | 44.32034 | 14.35836 | 35056 ft | 449 kts | 141° |
| 2026-05-08 11:29 | 44.27494 | 14.41833 | 35056 ft | 449 kts | 140° |
| 2026-05-08 11:30 | 44.22941 | 14.47805 | 35059 ft | 449 kts | 141° |
| 2026-05-08 11:30 | 44.18337 | 14.53671 | 35063 ft | 448 kts | 142° |
| 2026-05-08 11:31 | 44.13704 | 14.59487 | 35067 ft | 448 kts | 142° |
| 2026-05-08 11:31 | 44.09078 | 14.65302 | 35064 ft | 448 kts | 142° |
| 2026-05-08 11:32 | 44.04480 | 14.71093 | 35065 ft | 448 kts | 142° |
| 2026-05-08 11:32 | 43.99860 | 14.76916 | 35062 ft | 448 kts | 141° |
| 2026-05-08 11:33 | 43.95233 | 14.82721 | 35061 ft | 448 kts | 142° |
| 2026-05-08 11:33 | 43.90594 | 14.88508 | 35066 ft | 448 kts | 142° |
| 2026-05-08 11:34 | 43.85952 | 14.94286 | 35050 ft | 449 kts | 142° |
| 2026-05-08 11:34 | 43.81308 | 15.00072 | 35045 ft | 450 kts | 142° |
| 2026-05-08 11:35 | 43.76655 | 15.05870 | 35044 ft | 450 kts | 142° |
| 2026-05-08 11:35 | 43.72017 | 15.11627 | 35050 ft | 451 kts | 142° |
| 2026-05-08 11:36 | 43.67337 | 15.17411 | 35054 ft | 451 kts | 142° |
| 2026-05-08 11:36 | 43.62659 | 15.23186 | 35052 ft | 451 kts | 142° |
| 2026-05-08 11:37 | 43.57981 | 15.28946 | 35036 ft | 451 kts | 141° |
| 2026-05-08 11:37 | 43.53302 | 15.34713 | 35054 ft | 450 kts | 141° |
| 2026-05-08 11:38 | 43.48633 | 15.40456 | 35063 ft | 450 kts | 141° |
| 2026-05-08 11:38 | 43.43958 | 15.46175 | 35071 ft | 449 kts | 142° |
| 2026-05-08 11:39 | 43.39287 | 15.51876 | 35051 ft | 449 kts | 142° |
| 2026-05-08 11:39 | 43.34640 | 15.57540 | 35060 ft | 449 kts | 141° |
| 2026-05-08 11:40 | 43.29961 | 15.63225 | 35071 ft | 450 kts | 141° |
| 2026-05-08 11:40 | 43.25269 | 15.68917 | 35031 ft | 450 kts | 141° |
| 2026-05-08 11:41 | 43.20586 | 15.74589 | 35043 ft | 449 kts | 141° |
| 2026-05-08 11:41 | 43.15891 | 15.80256 | 35045 ft | 450 kts | 141° |
| 2026-05-08 11:42 | 43.11188 | 15.85925 | 35049 ft | 450 kts | 141° |
| 2026-05-08 11:42 | 43.06489 | 15.91579 | 35048 ft | 451 kts | 141° |
| 2026-05-08 11:43 | 43.01796 | 15.97223 | 35050 ft | 451 kts | 141° |
| 2026-05-08 11:43 | 42.97077 | 16.02873 | 35053 ft | 451 kts | 142° |
| 2026-05-08 11:44 | 42.92358 | 16.08513 | 35058 ft | 450 kts | 142° |
| 2026-05-08 11:44 | 42.87654 | 16.14128 | 35056 ft | 449 kts | 141° |
| 2026-05-08 11:45 | 42.82946 | 16.19741 | 35057 ft | 449 kts | 141° |
| 2026-05-08 11:45 | 42.78265 | 16.25304 | 35056 ft | 450 kts | 141° |
| 2026-05-08 11:46 | 42.73548 | 16.30897 | 35053 ft | 450 kts | 141° |
| 2026-05-08 11:46 | 42.68825 | 16.36480 | 35048 ft | 450 kts | 141° |
| 2026-05-08 11:47 | 42.64100 | 16.42065 | 35053 ft | 450 kts | 141° |
| 2026-05-08 11:47 | 42.59380 | 16.47632 | 35051 ft | 450 kts | 141° |
| 2026-05-08 11:48 | 42.54652 | 16.53180 | 35051 ft | 450 kts | 141° |
| 2026-05-08 11:48 | 42.49917 | 16.58735 | 35051 ft | 450 kts | 141° |
| 2026-05-08 11:49 | 42.45222 | 16.64236 | 35053 ft | 450 kts | 141° |
| 2026-05-08 11:49 | 42.40484 | 16.69779 | 35051 ft | 450 kts | 141° |
| 2026-05-08 11:50 | 42.35744 | 16.75310 | 35038 ft | 450 kts | 142° |
| 2026-05-08 11:50 | 42.30988 | 16.80839 | 35042 ft | 451 kts | 142° |
| 2026-05-08 11:51 | 42.26238 | 16.86356 | 35045 ft | 451 kts | 142° |
| 2026-05-08 11:51 | 42.21480 | 16.91875 | 35041 ft | 451 kts | 142° |
| 2026-05-08 11:52 | 42.16716 | 16.97376 | 35043 ft | 451 kts | 142° |
| 2026-05-08 11:52 | 42.11949 | 17.02868 | 35034 ft | 451 kts | 142° |
| 2026-05-08 11:53 | 42.07213 | 17.08329 | 35028 ft | 451 kts | 142° |
| 2026-05-08 11:53 | 42.02444 | 17.13816 | 35032 ft | 451 kts | 142° |
| 2026-05-08 11:54 | 41.97673 | 17.19288 | 35035 ft | 451 kts | 142° |
| 2026-05-08 11:54 | 41.92823 | 17.24627 | 35035 ft | 449 kts | 149° |
| 2026-05-08 11:55 | 41.87372 | 17.28623 | 35025 ft | 446 kts | 155° |
| 2026-05-08 11:55 | 41.81847 | 17.32442 | 35022 ft | 447 kts | 155° |
| 2026-05-08 11:56 | 41.76319 | 17.36275 | 35013 ft | 447 kts | 155° |
| 2026-05-08 11:56 | 41.70781 | 17.40098 | 35007 ft | 448 kts | 155° |
| 2026-05-08 11:57 | 41.65281 | 17.43888 | 34993 ft | 448 kts | 155° |
| 2026-05-08 11:57 | 41.59727 | 17.47709 | 34997 ft | 449 kts | 155° |
| 2026-05-08 11:58 | 41.54162 | 17.51524 | 35000 ft | 450 kts | 155° |
| 2026-05-08 11:58 | 41.48591 | 17.55349 | 34997 ft | 450 kts | 155° |
| 2026-05-08 11:59 | 41.40259 | 17.61049 | 35000 ft | 451 kts | 155° |
| 2026-05-08 11:59 | 41.34681 | 17.64853 | 35003 ft | 451 kts | 155° |
| 2026-05-08 12:00 | 41.29084 | 17.68654 | 35002 ft | 451 kts | 155° |
| 2026-05-08 12:00 | 41.23497 | 17.72447 | 35005 ft | 451 kts | 155° |
| 2026-05-08 12:01 | 41.17911 | 17.76242 | 34989 ft | 451 kts | 156° |
| 2026-05-08 12:01 | 41.12311 | 17.80040 | 34991 ft | 451 kts | 156° |
| 2026-05-08 12:02 | 41.06716 | 17.83815 | 34997 ft | 451 kts | 156° |
| 2026-05-08 12:02 | 41.01117 | 17.87589 | 34992 ft | 452 kts | 156° |
| 2026-05-08 12:03 | 40.95501 | 17.91357 | 34973 ft | 452 kts | 155° |
| 2026-05-08 12:03 | 40.89882 | 17.95128 | 34963 ft | 453 kts | 155° |
| 2026-05-08 12:04 | 40.84265 | 17.98895 | 34949 ft | 452 kts | 155° |
| 2026-05-08 12:04 | 40.78647 | 18.02653 | 34951 ft | 453 kts | 155° |
| 2026-05-08 12:05 | 40.73051 | 18.06395 | 34925 ft | 455 kts | 156° |
| 2026-05-08 12:05 | 40.67393 | 18.10171 | 34922 ft | 456 kts | 156° |
| 2026-05-08 12:06 | 40.61714 | 18.13949 | 34927 ft | 458 kts | 156° |
| 2026-05-08 12:06 | 40.56025 | 18.17727 | 34929 ft | 458 kts | 156° |
| 2026-05-08 12:07 | 40.50318 | 18.21504 | 34922 ft | 460 kts | 157° |
| 2026-05-08 12:07 | 40.44579 | 18.25295 | 34912 ft | 462 kts | 156° |
| 2026-05-08 12:08 | 40.38821 | 18.29099 | 34919 ft | 464 kts | 156° |
| 2026-05-08 12:08 | 40.33040 | 18.32905 | 34922 ft | 465 kts | 157° |
| 2026-05-08 12:09 | 40.27285 | 18.36685 | 34920 ft | 467 kts | 158° |
| 2026-05-08 12:09 | 40.21466 | 18.40500 | 34915 ft | 468 kts | 158° |
| 2026-05-08 12:10 | 40.15633 | 18.44328 | 34914 ft | 470 kts | 158° |
| 2026-05-08 12:10 | 40.09786 | 18.48155 | 34920 ft | 471 kts | 158° |
| 2026-05-08 12:11 | 40.03914 | 18.51981 | 34918 ft | 472 kts | 159° |
| 2026-05-08 12:11 | 39.98024 | 18.55819 | 34928 ft | 473 kts | 159° |
| 2026-05-08 12:12 | 39.92130 | 18.59651 | 34938 ft | 474 kts | 159° |
| 2026-05-08 12:12 | 39.86256 | 18.63460 | 34946 ft | 475 kts | 159° |
| 2026-05-08 12:13 | 39.80338 | 18.67289 | 34928 ft | 475 kts | 160° |
| 2026-05-08 12:13 | 39.74404 | 18.71121 | 34936 ft | 477 kts | 160° |
| 2026-05-08 12:14 | 39.68448 | 18.74951 | 34949 ft | 478 kts | 160° |
| 2026-05-08 12:14 | 39.62479 | 18.78790 | 34952 ft | 479 kts | 160° |
| 2026-05-08 12:15 | 39.56513 | 18.82635 | 34930 ft | 479 kts | 161° |
| 2026-05-08 12:15 | 39.50530 | 18.86469 | 34944 ft | 480 kts | 161° |
| 2026-05-08 12:16 | 39.45542 | 18.89656 | 34946 ft | 481 kts | 161° |
| 2026-05-08 12:16 | 39.39536 | 18.93488 | 34954 ft | 482 kts | 161° |
| 2026-05-08 12:17 | 39.33543 | 18.97398 | 34959 ft | 487 kts | 156° |
| 2026-05-08 12:17 | 39.30742 | 18.99932 | 34944 ft | 498 kts | 147° |
| 2026-05-08 12:17 | 39.28237 | 19.03086 | 34949 ft | 508 kts | 136° |
| 2026-05-08 12:18 | 39.24282 | 19.10773 | 34952 ft | 518 kts | 126° |
| 2026-05-08 12:18 | 39.20567 | 19.18670 | 34971 ft | 518 kts | 127° |
| 2026-05-08 12:19 | 39.16802 | 19.26598 | 34982 ft | 518 kts | 127° |
| 2026-05-08 12:19 | 39.13041 | 19.34514 | 34986 ft | 518 kts | 126° |
| 2026-05-08 12:20 | 39.09282 | 19.42433 | 34994 ft | 518 kts | 126° |
| 2026-05-08 12:20 | 39.05526 | 19.50340 | 34988 ft | 517 kts | 127° |
| 2026-05-08 12:21 | 39.01769 | 19.58221 | 35003 ft | 517 kts | 127° |
| 2026-05-08 12:21 | 38.98003 | 19.66079 | 35004 ft | 516 kts | 127° |
| 2026-05-08 12:22 | 38.94250 | 19.73883 | 35012 ft | 516 kts | 127° |
| 2026-05-08 12:22 | 38.90481 | 19.81720 | 35009 ft | 516 kts | 127° |
| 2026-05-08 12:23 | 38.86711 | 19.89547 | 35018 ft | 515 kts | 127° |
| 2026-05-08 12:23 | 38.82940 | 19.97361 | 35027 ft | 515 kts | 127° |
| 2026-05-08 12:24 | 38.79164 | 20.05152 | 35026 ft | 514 kts | 127° |
| 2026-05-08 12:24 | 38.75375 | 20.12938 | 35025 ft | 514 kts | 127° |
| 2026-05-08 12:25 | 38.71598 | 20.20703 | 35030 ft | 513 kts | 127° |
| 2026-05-08 12:25 | 38.67824 | 20.28454 | 35036 ft | 513 kts | 127° |
| 2026-05-08 12:26 | 38.64043 | 20.36194 | 35010 ft | 512 kts | 128° |
| 2026-05-08 12:26 | 38.60249 | 20.43916 | 35018 ft | 513 kts | 128° |
| 2026-05-08 12:27 | 38.56458 | 20.51625 | 35017 ft | 512 kts | 128° |
| 2026-05-08 12:27 | 38.52671 | 20.59328 | 35038 ft | 511 kts | 128° |
| 2026-05-08 12:28 | 38.48880 | 20.67006 | 35051 ft | 511 kts | 128° |
| 2026-05-08 12:28 | 38.45078 | 20.74670 | 35060 ft | 510 kts | 128° |
| 2026-05-08 12:29 | 38.41281 | 20.82316 | 35055 ft | 510 kts | 128° |
| 2026-05-08 12:29 | 38.37381 | 20.89830 | 35062 ft | 504 kts | 135° |
| 2026-05-08 12:30 | 38.32454 | 20.95840 | 35023 ft | 486 kts | 153° |
| 2026-05-08 12:30 | 38.26887 | 21.00659 | 35032 ft | 484 kts | 154° |
| 2026-05-08 12:31 | 38.21316 | 21.05501 | 35034 ft | 485 kts | 153° |
| 2026-05-08 12:31 | 38.15743 | 21.10343 | 35037 ft | 485 kts | 153° |
| 2026-05-08 12:32 | 38.10165 | 21.15172 | 35024 ft | 485 kts | 154° |
| 2026-05-08 12:32 | 38.04579 | 21.19989 | 35013 ft | 485 kts | 154° |
| 2026-05-08 12:33 | 37.99010 | 21.24795 | 35027 ft | 484 kts | 154° |
| 2026-05-08 12:33 | 37.93472 | 21.29560 | 34994 ft | 484 kts | 154° |
| 2026-05-08 12:34 | 37.87902 | 21.34342 | 34998 ft | 484 kts | 154° |
| 2026-05-08 12:34 | 37.82328 | 21.39114 | 35008 ft | 483 kts | 154° |
| 2026-05-08 12:35 | 37.76756 | 21.43878 | 35004 ft | 484 kts | 154° |
| 2026-05-08 12:35 | 37.71177 | 21.48634 | 35027 ft | 484 kts | 154° |
| 2026-05-08 12:36 | 37.65596 | 21.53389 | 35044 ft | 483 kts | 154° |
| 2026-05-08 12:36 | 37.60017 | 21.58130 | 35067 ft | 484 kts | 154° |
| 2026-05-08 12:37 | 37.54429 | 21.62872 | 35068 ft | 484 kts | 154° |
| 2026-05-08 12:37 | 37.48844 | 21.67611 | 35052 ft | 484 kts | 153° |
| 2026-05-08 12:38 | 37.43255 | 21.72343 | 35060 ft | 484 kts | 153° |
| 2026-05-08 12:38 | 37.37660 | 21.77066 | 35066 ft | 484 kts | 153° |
| 2026-05-08 12:39 | 37.32104 | 21.81752 | 35078 ft | 484 kts | 153° |
| 2026-05-08 12:39 | 37.26512 | 21.86455 | 35063 ft | 483 kts | 154° |
| 2026-05-08 12:40 | 37.20924 | 21.91132 | 35095 ft | 482 kts | 154° |
| 2026-05-08 12:40 | 37.15341 | 21.95797 | 35108 ft | 482 kts | 154° |
| 2026-05-08 12:41 | 37.09771 | 22.00462 | 35113 ft | 481 kts | 154° |
| 2026-05-08 12:41 | 37.04201 | 22.05127 | 35113 ft | 481 kts | 154° |
| 2026-05-08 12:42 | 36.98665 | 22.09735 | 35096 ft | 480 kts | 154° |
| 2026-05-08 12:42 | 36.93099 | 22.14362 | 35086 ft | 480 kts | 154° |
| 2026-05-08 12:43 | 36.87537 | 22.18996 | 35094 ft | 480 kts | 154° |
| 2026-05-08 12:43 | 36.81972 | 22.23611 | 35105 ft | 480 kts | 154° |
| 2026-05-08 12:44 | 36.76398 | 22.28210 | 35109 ft | 480 kts | 154° |
| 2026-05-08 12:44 | 36.70826 | 22.32818 | 35094 ft | 480 kts | 154° |
| 2026-05-08 12:45 | 36.65254 | 22.37422 | 35099 ft | 481 kts | 154° |
| 2026-05-08 12:45 | 36.59669 | 22.42020 | 35104 ft | 481 kts | 154° |
| 2026-05-08 12:46 | 36.54087 | 22.46601 | 35085 ft | 481 kts | 154° |
| 2026-05-08 12:46 | 36.48498 | 22.51182 | 35091 ft | 482 kts | 154° |
| 2026-05-08 12:47 | 36.42895 | 22.55766 | 35089 ft | 484 kts | 154° |
| 2026-05-08 12:47 | 36.37292 | 22.60343 | 35101 ft | 485 kts | 154° |
| 2026-05-08 12:48 | 36.31653 | 22.64958 | 35099 ft | 485 kts | 154° |
| 2026-05-08 12:48 | 36.26529 | 22.69139 | 35102 ft | 485 kts | 154° |
| 2026-05-08 12:49 | 36.20884 | 22.73727 | 35103 ft | 485 kts | 154° |
| 2026-05-08 12:49 | 36.15239 | 22.78311 | 35079 ft | 485 kts | 154° |
| 2026-05-08 12:50 | 36.09590 | 22.82886 | 35103 ft | 484 kts | 154° |
| 2026-05-08 12:50 | 36.03954 | 22.87443 | 35108 ft | 484 kts | 154° |
| 2026-05-08 12:51 | 35.95505 | 22.94269 | 35109 ft | 484 kts | 154° |
| 2026-05-08 12:52 | 35.89859 | 22.98816 | 35088 ft | 483 kts | 154° |
| 2026-05-08 12:52 | 35.81583 | 23.05871 | 35098 ft | 492 kts | 146° |
| 2026-05-08 12:53 | 35.76420 | 23.11405 | 35098 ft | 492 kts | 146° |
| 2026-05-08 12:53 | 35.71243 | 23.16921 | 35101 ft | 492 kts | 146° |
| 2026-05-08 12:54 | 35.66060 | 23.22417 | 35106 ft | 492 kts | 146° |
| 2026-05-08 12:54 | 35.60874 | 23.27919 | 35088 ft | 493 kts | 146° |
| 2026-05-08 12:55 | 35.55682 | 23.33429 | 35097 ft | 493 kts | 146° |
| 2026-05-08 12:55 | 35.50482 | 23.38932 | 35103 ft | 493 kts | 146° |
| 2026-05-08 12:56 | 35.45280 | 23.44427 | 35102 ft | 494 kts | 146° |
| 2026-05-08 12:56 | 35.40064 | 23.49920 | 35113 ft | 494 kts | 146° |
| 2026-05-08 12:57 | 35.34836 | 23.55408 | 35116 ft | 495 kts | 146° |
| 2026-05-08 12:57 | 35.29610 | 23.60900 | 35097 ft | 495 kts | 146° |
| 2026-05-08 12:58 | 35.24405 | 23.66349 | 35105 ft | 494 kts | 148° |
| 2026-05-08 12:58 | 35.18668 | 23.70698 | 35115 ft | 481 kts | 160° |
| 2026-05-08 12:59 | 35.12723 | 23.74467 | 35119 ft | 482 kts | 160° |
| 2026-05-08 12:59 | 35.06775 | 23.78251 | 35129 ft | 482 kts | 160° |
| 2026-05-08 13:00 | 35.00822 | 23.82025 | 35128 ft | 482 kts | 160° |
| 2026-05-08 13:00 | 34.94873 | 23.85795 | 35132 ft | 482 kts | 160° |
| 2026-05-08 13:01 | 34.88916 | 23.89559 | 35140 ft | 482 kts | 160° |
| 2026-05-08 13:01 | 34.83000 | 23.93289 | 35137 ft | 482 kts | 160° |
| 2026-05-08 13:02 | 34.77044 | 23.97038 | 35129 ft | 482 kts | 160° |
| 2026-05-08 13:02 | 34.71088 | 24.00782 | 35128 ft | 482 kts | 160° |
| 2026-05-08 13:03 | 34.65127 | 24.04519 | 35143 ft | 482 kts | 160° |
| 2026-05-08 13:03 | 34.59161 | 24.08259 | 35137 ft | 482 kts | 160° |
| 2026-05-08 13:04 | 34.53197 | 24.11988 | 35138 ft | 483 kts | 160° |
| 2026-05-08 13:04 | 34.47218 | 24.15718 | 35126 ft | 483 kts | 159° |
| 2026-05-08 13:05 | 34.41233 | 24.19451 | 35136 ft | 484 kts | 159° |
| 2026-05-08 13:05 | 34.35247 | 24.23179 | 35139 ft | 484 kts | 159° |
| 2026-05-08 13:06 | 34.29257 | 24.26900 | 35145 ft | 484 kts | 159° |
| 2026-05-08 13:06 | 34.23302 | 24.30596 | 35125 ft | 484 kts | 159° |
| 2026-05-08 13:07 | 34.17310 | 24.34306 | 35134 ft | 484 kts | 159° |
| 2026-05-08 13:07 | 34.11303 | 24.38015 | 35140 ft | 485 kts | 159° |
| 2026-05-08 13:08 | 34.06315 | 24.41107 | 35138 ft | 485 kts | 159° |
| 2026-05-08 13:08 | 34.00365 | 24.44991 | 35139 ft | 491 kts | 151° |
| 2026-05-08 13:09 | 33.95077 | 24.50304 | 35117 ft | 497 kts | 142° |
| 2026-05-08 13:09 | 33.89923 | 24.55845 | 35134 ft | 497 kts | 143° |
| 2026-05-08 13:10 | 33.84762 | 24.61379 | 35141 ft | 497 kts | 142° |
| 2026-05-08 13:10 | 33.79608 | 24.66913 | 35145 ft | 497 kts | 142° |
| 2026-05-08 13:11 | 33.74450 | 24.72438 | 35152 ft | 497 kts | 143° |
| 2026-05-08 13:11 | 33.69280 | 24.77951 | 35153 ft | 497 kts | 143° |
| 2026-05-08 13:12 | 33.64115 | 24.83463 | 35154 ft | 497 kts | 143° |
| 2026-05-08 13:12 | 33.58950 | 24.88976 | 35149 ft | 496 kts | 143° |
| 2026-05-08 13:13 | 33.53784 | 24.94477 | 35151 ft | 496 kts | 143° |
| 2026-05-08 13:13 | 33.48608 | 24.99968 | 35152 ft | 496 kts | 143° |
| 2026-05-08 13:14 | 33.43444 | 25.05445 | 35155 ft | 495 kts | 142° |
| 2026-05-08 13:14 | 33.38286 | 25.10902 | 35161 ft | 495 kts | 142° |
| 2026-05-08 13:15 | 33.33164 | 25.16307 | 35169 ft | 494 kts | 142° |
| 2026-05-08 13:15 | 33.27975 | 25.21779 | 35170 ft | 494 kts | 142° |
| 2026-05-08 13:16 | 33.22856 | 25.27171 | 35164 ft | 494 kts | 142° |
| 2026-05-08 13:16 | 33.17704 | 25.32600 | 35165 ft | 494 kts | 142° |
| 2026-05-08 13:17 | 33.12539 | 25.38018 | 35157 ft | 494 kts | 142° |
| 2026-05-08 13:17 | 33.07371 | 25.43429 | 35153 ft | 495 kts | 142° |
| 2026-05-08 13:18 | 33.02196 | 25.48839 | 35152 ft | 495 kts | 142° |
| 2026-05-08 13:18 | 32.97014 | 25.54243 | 35141 ft | 495 kts | 142° |
| 2026-05-08 13:19 | 32.91835 | 25.59643 | 35150 ft | 495 kts | 142° |
| 2026-05-08 13:19 | 32.86679 | 25.65025 | 35146 ft | 495 kts | 142° |
| 2026-05-08 13:20 | 32.81488 | 25.70425 | 35149 ft | 496 kts | 142° |
| 2026-05-08 13:20 | 32.76294 | 25.75816 | 35151 ft | 496 kts | 142° |
| 2026-05-08 13:21 | 32.71094 | 25.81204 | 35153 ft | 496 kts | 142° |
| 2026-05-08 13:21 | 32.65887 | 25.86582 | 35148 ft | 496 kts | 142° |
| 2026-05-08 13:22 | 32.60681 | 25.91957 | 35155 ft | 496 kts | 142° |
| 2026-05-08 13:22 | 32.55470 | 25.97337 | 35152 ft | 497 kts | 142° |
| 2026-05-08 13:23 | 32.50256 | 26.02711 | 35147 ft | 497 kts | 142° |
| 2026-05-08 13:23 | 32.45027 | 26.08077 | 35148 ft | 497 kts | 142° |
| 2026-05-08 13:24 | 32.39830 | 26.13403 | 35153 ft | 498 kts | 142° |
| 2026-05-08 13:24 | 32.34593 | 26.18776 | 35145 ft | 498 kts | 142° |
| 2026-05-08 13:25 | 32.29350 | 26.24142 | 35149 ft | 498 kts | 142° |
| 2026-05-08 13:25 | 32.24109 | 26.29498 | 35143 ft | 499 kts | 142° |
| 2026-05-08 13:26 | 32.18862 | 26.34843 | 35143 ft | 499 kts | 142° |
| 2026-05-08 13:26 | 32.13597 | 26.40197 | 35142 ft | 500 kts | 142° |
| 2026-05-08 13:27 | 32.08330 | 26.45548 | 35145 ft | 500 kts | 142° |
| 2026-05-08 13:27 | 32.03055 | 26.50896 | 35138 ft | 500 kts | 142° |
| 2026-05-08 13:28 | 31.97775 | 26.56246 | 35142 ft | 501 kts | 142° |
| 2026-05-08 13:28 | 31.92489 | 26.61600 | 35148 ft | 501 kts | 142° |
| 2026-05-08 13:29 | 31.87210 | 26.66941 | 35149 ft | 500 kts | 142° |
| 2026-05-08 13:29 | 31.81954 | 26.72232 | 35151 ft | 500 kts | 142° |
| 2026-05-08 13:30 | 31.76670 | 26.77549 | 35152 ft | 500 kts | 142° |
| 2026-05-08 13:30 | 31.71382 | 26.82862 | 35140 ft | 500 kts | 142° |
| 2026-05-08 13:31 | 31.66097 | 26.88172 | 35153 ft | 500 kts | 142° |
| 2026-05-08 13:31 | 31.60812 | 26.93475 | 35160 ft | 500 kts | 142° |
| 2026-05-08 13:32 | 31.55531 | 26.98767 | 35160 ft | 499 kts | 142° |
| 2026-05-08 13:32 | 31.50245 | 27.04047 | 35161 ft | 499 kts | 142° |
| 2026-05-08 13:33 | 31.44955 | 27.09319 | 35159 ft | 499 kts | 143° |
| 2026-05-08 13:33 | 31.39661 | 27.14584 | 35140 ft | 499 kts | 142° |
| 2026-05-08 13:34 | 31.34375 | 27.19839 | 35179 ft | 498 kts | 143° |
| 2026-05-08 13:34 | 31.28565 | 27.24086 | 35182 ft | 490 kts | 159° |
| 2026-05-08 13:35 | 31.22378 | 27.27433 | 35184 ft | 490 kts | 159° |
| 2026-05-08 13:35 | 31.16190 | 27.30795 | 35172 ft | 491 kts | 159° |
| 2026-05-08 13:36 | 31.10042 | 27.34142 | 35156 ft | 491 kts | 159° |
| 2026-05-08 13:36 | 31.03854 | 27.37495 | 35151 ft | 490 kts | 159° |
| 2026-05-08 13:37 | 30.97649 | 27.40836 | 35129 ft | 490 kts | 159° |
| 2026-05-08 13:37 | 30.91678 | 27.44711 | 35148 ft | 496 kts | 145° |
| 2026-05-08 13:38 | 30.86281 | 27.49735 | 35145 ft | 497 kts | 144° |
| 2026-05-08 13:38 | 30.80881 | 27.54742 | 35135 ft | 496 kts | 144° |
| 2026-05-08 13:39 | 30.75488 | 27.59722 | 35132 ft | 495 kts | 144° |
| 2026-05-08 13:39 | 30.70094 | 27.64700 | 35132 ft | 494 kts | 144° |
| 2026-05-08 13:40 | 30.64711 | 27.69670 | 35125 ft | 494 kts | 144° |
| 2026-05-08 13:40 | 30.59326 | 27.74627 | 35117 ft | 494 kts | 144° |
| 2026-05-08 13:41 | 30.53947 | 27.79589 | 35115 ft | 494 kts | 144° |
| 2026-05-08 13:41 | 30.48564 | 27.84533 | 35090 ft | 493 kts | 143° |
| 2026-05-08 13:42 | 30.43184 | 27.89466 | 35094 ft | 493 kts | 143° |
| 2026-05-08 13:42 | 30.37842 | 27.94362 | 35095 ft | 493 kts | 144° |
| 2026-05-08 13:43 | 30.32459 | 27.99275 | 35095 ft | 492 kts | 144° |
| 2026-05-08 13:43 | 30.27079 | 28.04178 | 35089 ft | 492 kts | 143° |
| 2026-05-08 13:44 | 30.21707 | 28.09092 | 35087 ft | 493 kts | 143° |
| 2026-05-08 13:44 | 30.16327 | 28.13998 | 35084 ft | 493 kts | 143° |
| 2026-05-08 13:45 | 30.10936 | 28.18894 | 35075 ft | 492 kts | 143° |
| 2026-05-08 13:45 | 30.05553 | 28.23788 | 35070 ft | 492 kts | 143° |
| 2026-05-08 13:46 | 30.00173 | 28.28679 | 35069 ft | 493 kts | 143° |
| 2026-05-08 13:46 | 29.94784 | 28.33566 | 35065 ft | 493 kts | 143° |
| 2026-05-08 13:47 | 29.89388 | 28.38439 | 35066 ft | 493 kts | 143° |
| 2026-05-08 13:47 | 29.84549 | 28.43938 | 35047 ft | 494 kts | 127° |
| 2026-05-08 13:48 | 29.80365 | 28.50232 | 35054 ft | 495 kts | 128° |
| 2026-05-08 13:48 | 29.76151 | 28.56513 | 35056 ft | 495 kts | 128° |
| 2026-05-08 13:49 | 29.71932 | 28.62794 | 35058 ft | 496 kts | 128° |
| 2026-05-08 13:49 | 29.67717 | 28.69071 | 35070 ft | 496 kts | 128° |
| 2026-05-08 13:50 | 29.63518 | 28.75310 | 35074 ft | 496 kts | 128° |
| 2026-05-08 13:50 | 29.59303 | 28.81578 | 35077 ft | 495 kts | 128° |
| 2026-05-08 13:51 | 29.55085 | 28.87829 | 35070 ft | 495 kts | 128° |
| 2026-05-08 13:51 | 29.50857 | 28.94092 | 35072 ft | 495 kts | 128° |
| 2026-05-08 13:52 | 29.46639 | 29.00339 | 35071 ft | 495 kts | 127° |
| 2026-05-08 13:52 | 29.43206 | 29.07108 | 35075 ft | 491 kts | 109° |
| 2026-05-08 13:53 | 29.41708 | 29.14673 | 35069 ft | 484 kts | 91° |
| 2026-05-08 13:53 | 29.41597 | 29.22327 | 35063 ft | 483 kts | 88° |
| 2026-05-08 13:54 | 29.41506 | 29.30030 | 35064 ft | 483 kts | 88° |
| 2026-05-08 13:54 | 29.41404 | 29.37740 | 35063 ft | 484 kts | 88° |
| 2026-05-08 13:55 | 29.41301 | 29.45468 | 35060 ft | 484 kts | 88° |
| 2026-05-08 13:56 | 29.41142 | 29.57054 | 35060 ft | 485 kts | 88° |
| 2026-05-08 13:56 | 29.41032 | 29.64790 | 35062 ft | 485 kts | 88° |
| 2026-05-08 13:57 | 29.40915 | 29.72520 | 35062 ft | 485 kts | 88° |
| 2026-05-08 13:57 | 29.40797 | 29.80207 | 35063 ft | 485 kts | 88° |
| 2026-05-08 13:58 | 29.40679 | 29.87937 | 35069 ft | 485 kts | 88° |
| 2026-05-08 13:58 | 29.40551 | 29.95671 | 35064 ft | 485 kts | 88° |
| 2026-05-08 13:59 | 29.40418 | 30.03403 | 35065 ft | 485 kts | 88° |
| 2026-05-08 13:59 | 29.40309 | 30.09835 | 35062 ft | 485 kts | 88° |
| 2026-05-08 14:00 | 29.40168 | 30.17613 | 35059 ft | 485 kts | 88° |
| 2026-05-08 14:00 | 29.40022 | 30.25299 | 35057 ft | 485 kts | 88° |
| 2026-05-08 14:01 | 29.39691 | 30.33026 | 35054 ft | 488 kts | 97° |
| 2026-05-08 14:01 | 29.37580 | 30.40442 | 35044 ft | 493 kts | 116° |
| 2026-05-08 14:02 | 29.33510 | 30.46760 | 35041 ft | 495 kts | 134° |
| 2026-05-08 14:02 | 29.28731 | 30.52463 | 35035 ft | 496 kts | 134° |
| 2026-05-08 14:03 | 29.23952 | 30.58165 | 35027 ft | 496 kts | 134° |
| 2026-05-08 14:03 | 29.19163 | 30.63856 | 35033 ft | 497 kts | 134° |
| 2026-05-08 14:04 | 29.14354 | 30.69557 | 35040 ft | 497 kts | 134° |
| 2026-05-08 14:04 | 29.09556 | 30.75251 | 35043 ft | 497 kts | 134° |
| 2026-05-08 14:05 | 29.04783 | 30.80907 | 35039 ft | 497 kts | 134° |
| 2026-05-08 14:05 | 28.99976 | 30.86591 | 35055 ft | 497 kts | 134° |
| 2026-05-08 14:06 | 28.95170 | 30.92267 | 35061 ft | 496 kts | 134° |
| 2026-05-08 14:06 | 28.90367 | 30.97927 | 35060 ft | 496 kts | 134° |
| 2026-05-08 14:07 | 28.85557 | 31.03587 | 35055 ft | 496 kts | 134° |
| 2026-05-08 14:07 | 28.80754 | 31.09239 | 35046 ft | 496 kts | 134° |
| 2026-05-08 14:08 | 28.75954 | 31.14889 | 35048 ft | 496 kts | 134° |
| 2026-05-08 14:08 | 28.71170 | 31.20494 | 35041 ft | 496 kts | 134° |
| 2026-05-08 14:09 | 28.66424 | 31.26190 | 35035 ft | 496 kts | 132° |
| 2026-05-08 14:09 | 28.61830 | 31.32051 | 35038 ft | 496 kts | 131° |
| 2026-05-08 14:10 | 28.57258 | 31.37930 | 35038 ft | 496 kts | 131° |
| 2026-05-08 14:10 | 28.52635 | 31.43766 | 35020 ft | 496 kts | 132° |
| 2026-05-08 14:11 | 28.47992 | 31.49565 | 35033 ft | 496 kts | 132° |
| 2026-05-08 14:11 | 28.43341 | 31.55369 | 35021 ft | 496 kts | 131° |
| 2026-05-08 14:12 | 28.38684 | 31.61186 | 34651 ft | 499 kts | 131° |
| 2026-05-08 14:12 | 28.36349 | 31.64097 | 34298 ft | 499 kts | 131° |
| 2026-05-08 14:12 | 28.34010 | 31.67013 | 33944 ft | 500 kts | 131° |
| 2026-05-08 14:12 | 28.31667 | 31.69939 | 33523 ft | 501 kts | 131° |
| 2026-05-08 14:13 | 28.29324 | 31.72866 | 33134 ft | 501 kts | 131° |
| 2026-05-08 14:13 | 28.27008 | 31.75757 | 32747 ft | 502 kts | 132° |
| 2026-05-08 14:13 | 28.24622 | 31.78730 | 32357 ft | 503 kts | 132° |
| 2026-05-08 14:13 | 28.22257 | 31.81667 | 31989 ft | 505 kts | 132° |
| 2026-05-08 14:14 | 28.19916 | 31.84577 | 31622 ft | 507 kts | 132° |
| 2026-05-08 14:14 | 28.17540 | 31.87528 | 31261 ft | 508 kts | 132° |
| 2026-05-08 14:14 | 28.15151 | 31.90499 | 30887 ft | 509 kts | 132° |
| 2026-05-08 14:14 | 28.12761 | 31.93471 | 30533 ft | 511 kts | 132° |
| 2026-05-08 14:15 | 28.10360 | 31.96451 | 30174 ft | 512 kts | 132° |
| 2026-05-08 14:15 | 28.07956 | 31.99444 | 29766 ft | 513 kts | 130° |
| 2026-05-08 14:15 | 28.05867 | 32.02714 | 29360 ft | 512 kts | 118° |
| 2026-05-08 14:15 | 28.04361 | 32.06354 | 28963 ft | 510 kts | 107° |
| 2026-05-08 14:16 | 28.03496 | 32.10168 | 28576 ft | 506 kts | 95° |
| 2026-05-08 14:16 | 28.03257 | 32.14115 | 28183 ft | 502 kts | 86° |
| 2026-05-08 14:16 | 28.03239 | 32.18071 | 27795 ft | 503 kts | 86° |
| 2026-05-08 14:16 | 28.03215 | 32.22036 | 27409 ft | 504 kts | 87° |
| 2026-05-08 14:17 | 28.03185 | 32.26014 | 27033 ft | 505 kts | 87° |
| 2026-05-08 14:17 | 28.03150 | 32.29998 | 26646 ft | 506 kts | 87° |
| 2026-05-08 14:17 | 28.03112 | 32.33982 | 26281 ft | 507 kts | 87° |
| 2026-05-08 14:17 | 28.03070 | 32.37963 | 25932 ft | 507 kts | 87° |
| 2026-05-08 14:18 | 28.03029 | 32.41956 | 25554 ft | 505 kts | 87° |
| 2026-05-08 14:18 | 28.02987 | 32.45874 | 25199 ft | 490 kts | 87° |
| 2026-05-08 14:18 | 28.02946 | 32.49678 | 24850 ft | 477 kts | 87° |
| 2026-05-08 14:18 | 28.02910 | 32.53394 | 24502 ft | 466 kts | 87° |
| 2026-05-08 14:19 | 28.02877 | 32.57020 | 24160 ft | 455 kts | 87° |
| 2026-05-08 14:19 | 28.02842 | 32.60554 | 23819 ft | 440 kts | 87° |
| 2026-05-08 14:19 | 28.02802 | 32.63895 | 23489 ft | 420 kts | 87° |
| 2026-05-08 14:19 | 28.02762 | 32.67123 | 23099 ft | 402 kts | 87° |
| 2026-05-08 14:20 | 28.02724 | 32.70260 | 22711 ft | 389 kts | 87° |
| 2026-05-08 14:20 | 28.02694 | 32.73271 | 22326 ft | 385 kts | 87° |
| 2026-05-08 14:20 | 28.02667 | 32.76289 | 21946 ft | 382 kts | 87° |
| 2026-05-08 14:20 | 28.02637 | 32.79275 | 21573 ft | 378 kts | 87° |
| 2026-05-08 14:21 | 28.02604 | 32.82245 | 21213 ft | 374 kts | 88° |
| 2026-05-08 14:21 | 28.02568 | 32.85182 | 20844 ft | 371 kts | 88° |
| 2026-05-08 14:21 | 28.02530 | 32.88089 | 20482 ft | 368 kts | 88° |
| 2026-05-08 14:21 | 28.02492 | 32.90976 | 20127 ft | 365 kts | 87° |
| 2026-05-08 14:22 | 28.02455 | 32.93840 | 19767 ft | 363 kts | 88° |
| 2026-05-08 14:22 | 28.02417 | 32.96690 | 19410 ft | 361 kts | 87° |
| 2026-05-08 14:22 | 28.02377 | 32.99520 | 19065 ft | 359 kts | 87° |
| 2026-05-08 14:22 | 28.02337 | 33.02340 | 18729 ft | 357 kts | 88° |
| 2026-05-08 14:23 | 28.02298 | 33.05139 | 18378 ft | 355 kts | 88° |
| 2026-05-08 14:23 | 28.02261 | 33.07884 | 18020 ft | 353 kts | 88° |
| 2026-05-08 14:23 | 28.02224 | 33.10658 | 17633 ft | 351 kts | 88° |
| 2026-05-08 14:23 | 28.02188 | 33.13411 | 17250 ft | 349 kts | 87° |
| 2026-05-08 14:24 | 28.02149 | 33.16152 | 16896 ft | 348 kts | 86° |
| 2026-05-08 14:24 | 28.02109 | 33.18881 | 16572 ft | 345 kts | 87° |
| 2026-05-08 14:24 | 28.02069 | 33.21590 | 16279 ft | 342 kts | 87° |
| 2026-05-08 14:24 | 28.02028 | 33.24279 | 15987 ft | 341 kts | 88° |
| 2026-05-08 14:25 | 28.01984 | 33.26965 | 15658 ft | 341 kts | 89° |
| 2026-05-08 14:25 | 28.01942 | 33.29639 | 15344 ft | 338 kts | 89° |
| 2026-05-08 14:25 | 28.01903 | 33.32294 | 15036 ft | 337 kts | 88° |
| 2026-05-08 14:25 | 28.01862 | 33.34948 | 14731 ft | 337 kts | 89° |
| 2026-05-08 14:26 | 28.01819 | 33.37590 | 14427 ft | 335 kts | 89° |
| 2026-05-08 14:26 | 28.01778 | 33.40214 | 14123 ft | 333 kts | 88° |
| 2026-05-08 14:26 | 28.01738 | 33.42806 | 13834 ft | 333 kts | 88° |
| 2026-05-08 14:26 | 28.01698 | 33.45419 | 13511 ft | 331 kts | 89° |
| 2026-05-08 14:27 | 28.01654 | 33.48009 | 13178 ft | 328 kts | 88° |
| 2026-05-08 14:27 | 28.01611 | 33.50586 | 12839 ft | 326 kts | 89° |
| 2026-05-08 14:27 | 28.01566 | 33.53144 | 12524 ft | 324 kts | 90° |
| 2026-05-08 14:27 | 28.01520 | 33.55679 | 12200 ft | 321 kts | 90° |
| 2026-05-08 14:28 | 28.01477 | 33.58199 | 11883 ft | 319 kts | 90° |
| 2026-05-08 14:28 | 28.01420 | 33.60697 | 11595 ft | 315 kts | 93° |
| 2026-05-08 14:28 | 28.01059 | 33.63123 | 11331 ft | 312 kts | 105° |
| 2026-05-08 14:28 | 28.00405 | 33.65459 | 11015 ft | 310 kts | 107° |
| 2026-05-08 14:29 | 27.99745 | 33.67779 | 10751 ft | 310 kts | 107° |
| 2026-05-08 14:29 | 27.99092 | 33.70095 | 10508 ft | 308 kts | 107° |
| 2026-05-08 14:29 | 27.98443 | 33.72397 | 10250 ft | 305 kts | 107° |
| 2026-05-08 14:29 | 27.97796 | 33.74681 | 9995 ft | 304 kts | 107° |
| 2026-05-08 14:30 | 27.97150 | 33.76956 | 9733 ft | 304 kts | 107° |
| 2026-05-08 14:30 | 27.96507 | 33.79222 | 9453 ft | 302 kts | 107° |
| 2026-05-08 14:30 | 27.95869 | 33.81469 | 9179 ft | 298 kts | 107° |
| 2026-05-08 14:30 | 27.95243 | 33.83673 | 8906 ft | 297 kts | 107° |
| 2026-05-08 14:31 | 27.94612 | 33.85894 | 8638 ft | 296 kts | 107° |
| 2026-05-08 14:31 | 27.93984 | 33.88103 | 8369 ft | 294 kts | 107° |
| 2026-05-08 14:31 | 27.93360 | 33.90296 | 8108 ft | 292 kts | 107° |
| 2026-05-08 14:32 | 27.92111 | 33.94649 | 7988 ft | 291 kts | 107° |
| 2026-05-08 14:32 | 27.91486 | 33.96830 | 7991 ft | 291 kts | 108° |
| 2026-05-08 14:32 | 27.90803 | 33.98987 | 7989 ft | 288 kts | 110° |
| 2026-05-08 14:32 | 27.90056 | 34.01089 | 7992 ft | 290 kts | 111° |
| 2026-05-08 14:33 | 27.89276 | 34.03193 | 7810 ft | 291 kts | 112° |
| 2026-05-08 14:33 | 27.88487 | 34.05303 | 7401 ft | 291 kts | 111° |
| 2026-05-08 14:33 | 27.87703 | 34.07408 | 6999 ft | 287 kts | 112° |
| 2026-05-08 14:33 | 27.86950 | 34.09445 | 6594 ft | 275 kts | 111° |
| 2026-05-08 14:34 | 27.86239 | 34.11383 | 6194 ft | 266 kts | 111° |
| 2026-05-08 14:34 | 27.85547 | 34.13278 | 5785 ft | 257 kts | 111° |
| 2026-05-08 14:34 | 27.84875 | 34.15123 | 5372 ft | 250 kts | 111° |
| 2026-05-08 14:34 | 27.84221 | 34.16921 | 4974 ft | 246 kts | 112° |
| 2026-05-08 14:35 | 27.83576 | 34.18695 | 4565 ft | 242 kts | 112° |
| 2026-05-08 14:35 | 27.82944 | 34.20449 | 4147 ft | 240 kts | 109° |
| 2026-05-08 14:35 | 27.82737 | 34.22248 | 3892 ft | 226 kts | 79° |
| 2026-05-08 14:35 | 27.83229 | 34.23875 | 3646 ft | 214 kts | 55° |
| 2026-05-08 14:36 | 27.84175 | 34.25074 | 3430 ft | 198 kts | 41° |
| 2026-05-08 14:36 | 27.85165 | 34.26100 | 3169 ft | 189 kts | 40° |
| 2026-05-08 14:36 | 27.86110 | 34.27082 | 2935 ft | 181 kts | 40° |
| 2026-05-08 14:36 | 27.87017 | 34.28025 | 2713 ft | 175 kts | 41° |
| 2026-05-08 14:37 | 27.87904 | 34.28946 | 2488 ft | 172 kts | 42° |
| 2026-05-08 14:37 | 27.88779 | 34.29856 | 2279 ft | 170 kts | 42° |
| 2026-05-08 14:37 | 27.89646 | 34.30758 | 2078 ft | 168 kts | 43° |
| 2026-05-08 14:37 | 27.90505 | 34.31652 | 1857 ft | 166 kts | 41° |
| 2026-05-08 14:38 | 27.91344 | 34.32526 | 1641 ft | 166 kts | 41° |
| 2026-05-08 14:38 | 27.92189 | 34.33407 | 1425 ft | 163 kts | 38° |
| 2026-05-08 14:38 | 27.93003 | 34.34254 | 1203 ft | 155 kts | 39° |
| 2026-05-08 14:38 | 27.93777 | 34.35061 | 1002 ft | 148 kts | 40° |
| 2026-05-08 14:39 | 27.94528 | 34.35843 | 821 ft | 144 kts | 40° |
| 2026-05-08 14:39 | 27.95253 | 34.36598 | 621 ft | 140 kts | 39° |
| 2026-05-08 14:39 | 27.95956 | 34.37330 | 417 ft | 138 kts | 39° |
| 2026-05-08 14:39 | 27.96659 | 34.38058 | 255 ft | 137 kts | 38° |
| 2026-05-08 14:40 | 27.97342 | 34.38764 | 175 ft | 120 kts | 44° |
| 2026-05-08 14:40 | 27.97833 | 34.39274 | 174 ft | 71 kts | 43° |
| 2026-05-08 14:40 | 27.98069 | 34.39522 | 174 ft | 22 kts | 42° |
| 2026-05-08 14:40 | 27.98138 | 34.39569 | 174 ft | 10 kts | 355° |
| 2026-05-08 14:41 | 27.98194 | 34.39510 | 174 ft | 12 kts | 312° |
| 2026-05-08 14:41 | 27.98238 | 34.39458 | 172 ft | 9 kts | 313° |
| 2026-05-08 14:41 | 27.98238 | 34.39394 | 172 ft | 10 kts | 228° |
| 2026-05-08 14:41 | 27.98169 | 34.39323 | 172 ft | 17 kts | 222° |
| 2026-05-08 14:42 | 27.98096 | 34.39248 | 172 ft | 9 kts | 223° |
| 2026-05-08 14:42 | 27.98032 | 34.39180 | 172 ft | 16 kts | 223° |
| 2026-05-08 14:42 | 27.97943 | 34.39088 | 172 ft | 19 kts | 222° |
| 2026-05-08 14:42 | 27.97873 | 34.38989 | 172 ft | 16 kts | 272° |
| 2026-05-08 14:43 | 27.97944 | 34.38896 | 172 ft | 17 kts | 314° |
| 2026-05-08 14:43 | 27.97981 | 34.38809 | 172 ft | 15 kts | 243° |
| 2026-05-08 14:43 | 27.97894 | 34.38715 | 172 ft | 13 kts | 223° |
| 2026-05-08 14:43 | 27.97834 | 34.38673 | 172 ft | 8 kts | 169° |
| 2026-05-08 14:44 | 27.97813 | 34.38695 | 172 ft | 1 kts | 128° |
| 2026-05-08 14:44 | 27.97807 | 34.38702 | 172 ft | 0 kts | 131° |
| 2026-05-08 15:14 | 27.97807 | 34.38703 | 172 ft | 0 kts | 131° |
| 2026-05-08 15:14 | 27.97807 | 34.38702 | 172 ft | 0 kts | 131° |